createdAt,value
2022-12-19T00:00:27.224Z,3.52
2022-12-19T00:01:34.244Z,3.79
2022-12-19T00:02:37.486Z,3.45
2022-12-19T00:03:40.850Z,3.30
2022-12-19T00:04:44.029Z,3.61
2022-12-19T00:05:47.223Z,3.69
2022-12-19T00:06:50.596Z,3.26
2022-12-19T00:07:53.701Z,3.84
2022-12-19T00:08:59.861Z,3.75
2022-12-19T00:10:03.216Z,3.64
2022-12-19T00:11:06.459Z,3.35
2022-12-19T00:12:11.372Z,3.92
2022-12-19T00:13:14.699Z,3.73
2022-12-19T00:14:17.813Z,3.59
2022-12-19T00:15:20.921Z,3.56
2022-12-19T00:16:26.873Z,3.45
2022-12-19T00:17:30.122Z,3.74
2022-12-19T00:18:33.438Z,3.47
2022-12-19T00:19:36.546Z,3.96
2022-12-19T00:20:40.105Z,3.67
2022-12-19T00:21:43.374Z,3.59
2022-12-19T00:22:46.651Z,3.54
2022-12-19T00:23:50.354Z,4.18
2022-12-19T00:24:53.753Z,3.33
2022-12-19T00:26:11.915Z,4.32
2022-12-19T00:27:15.188Z,3.91
2022-12-19T00:28:18.254Z,3.99
2022-12-19T00:29:23.244Z,3.65
2022-12-19T00:30:27.495Z,3.38
2022-12-19T00:31:34.192Z,4.17
2022-12-19T00:32:37.646Z,3.71
2022-12-19T00:33:43.413Z,3.58
2022-12-19T00:34:45.924Z,3.46
2022-12-19T00:35:49.155Z,3.29
2022-12-19T00:36:52.436Z,3.31
2022-12-19T00:37:55.886Z,3.62
2022-12-19T00:39:00.443Z,3.79
2022-12-19T00:40:04.140Z,3.44
2022-12-19T00:41:15.701Z,3.78
2022-12-19T00:42:18.899Z,3.62
2022-12-19T00:43:22.174Z,3.84
2022-12-19T00:44:25.446Z,3.36
2022-12-19T00:45:29.267Z,3.31
2022-12-19T00:46:34.983Z,3.89
2022-12-19T00:47:38.208Z,3.95
2022-12-19T00:48:42.254Z,3.17
2022-12-19T00:49:45.554Z,3.58
2022-12-19T00:51:01.871Z,3.41
2022-12-19T00:52:05.196Z,3.37
2022-12-19T00:53:08.417Z,3.52
2022-12-19T00:54:11.626Z,3.42
2022-12-19T00:55:18.929Z,3.41
2022-12-19T00:56:23.120Z,3.20
2022-12-19T00:57:26.329Z,3.42
2022-12-19T00:58:32.142Z,3.41
2022-12-19T00:59:34.504Z,3.27
2022-12-19T01:00:37.586Z,3.26
2022-12-19T01:01:41.847Z,3.35
2022-12-19T01:02:45.440Z,3.46
2022-12-19T01:04:19.158Z,3.22
2022-12-19T01:04:53.956Z,3.36
2022-12-19T01:05:57.110Z,3.54
2022-12-19T01:07:01.989Z,3.49
2022-12-19T01:08:07.457Z,3.41
2022-12-19T01:09:11.768Z,3.54
2022-12-19T01:10:15.018Z,3.64
2022-12-19T01:11:19.968Z,3.52
2022-12-19T01:12:41.631Z,3.19
2022-12-19T01:13:44.869Z,3.86
2022-12-19T01:14:48.051Z,3.49
2022-12-19T01:15:51.193Z,3.78
2022-12-19T01:16:54.475Z,3.41
2022-12-19T01:17:57.705Z,3.09
2022-12-19T01:19:00.769Z,3.44
2022-12-19T01:20:06.767Z,3.22
2022-12-19T01:21:11.020Z,3.39
2022-12-19T01:22:14.406Z,3.69
2022-12-19T01:23:17.780Z,3.12
2022-12-19T01:24:20.822Z,3.42
2022-12-19T01:25:25.444Z,3.64
2022-12-19T01:26:28.602Z,3.62
2022-12-19T01:27:31.706Z,3.19
2022-12-19T01:28:34.892Z,3.82
2022-12-19T01:29:51.855Z,3.74
2022-12-19T01:30:43.088Z,3.22
2022-12-19T01:31:46.395Z,3.47
2022-12-19T01:32:50.007Z,3.79
2022-12-19T01:33:53.139Z,3.81
2022-12-19T01:34:58.575Z,3.56
2022-12-19T01:36:03.447Z,3.87
2022-12-19T01:37:07.438Z,3.48
2022-12-19T01:38:13.589Z,3.47
2022-12-19T01:39:16.577Z,3.46
2022-12-19T01:40:21.415Z,4.13
2022-12-19T01:41:24.773Z,3.41
2022-12-19T01:42:32.532Z,3.92
2022-12-19T01:43:58.921Z,3.52
2022-12-19T01:45:17.595Z,4.15
2022-12-19T01:46:27.082Z,3.65
2022-12-19T01:47:34.339Z,4.08
2022-12-19T01:48:40.996Z,3.83
2022-12-19T01:49:44.691Z,3.55
2022-12-19T01:51:01.457Z,3.69
2022-12-19T01:52:10.331Z,3.97
2022-12-19T01:53:14.263Z,4.37
2022-12-19T01:54:35.971Z,3.69
2022-12-19T01:55:40.878Z,3.85
2022-12-19T01:56:47.689Z,4.06
2022-12-19T01:57:52.077Z,4.29
2022-12-19T01:59:06.339Z,4.27
2022-12-19T02:00:04.325Z,4.52
2022-12-19T02:01:09.352Z,4.16
2022-12-19T02:02:31.122Z,4.07
2022-12-19T02:03:36.358Z,3.88
2022-12-19T02:04:41.355Z,3.72
2022-12-19T02:05:45.378Z,3.76
2022-12-19T02:06:50.714Z,4.69
2022-12-19T02:07:54.251Z,4.18
2022-12-19T02:08:57.456Z,4.41
2022-12-19T02:10:00.560Z,4.11
2022-12-19T02:11:05.551Z,4.71
2022-12-19T02:12:08.952Z,4.03
2022-12-19T02:13:14.024Z,4.66
2022-12-19T02:14:17.541Z,4.72
2022-12-19T02:15:20.990Z,4.46
2022-12-19T02:16:29.976Z,4.51
2022-12-19T02:17:56.161Z,4.07
2022-12-19T02:19:28.601Z,3.88
2022-12-19T02:20:54.881Z,4.41
2022-12-19T02:23:37.739Z,4.13
2022-12-19T02:24:53.363Z,4.03
2022-12-19T02:26:08.923Z,4.66
2022-12-19T02:29:01.053Z,4.31
2022-12-19T02:30:10.561Z,4.31
2022-12-19T02:31:34.056Z,4.54
2022-12-19T02:32:46.620Z,4.66
2022-12-19T02:34:05.589Z,4.58
2022-12-19T02:35:47.137Z,4.80
2022-12-19T02:36:55.601Z,4.42
2022-12-19T02:38:13.162Z,4.16
2022-12-19T02:39:33.873Z,4.79
2022-12-19T02:40:46.911Z,4.40
2022-12-19T02:41:57.564Z,4.35
2022-12-19T02:43:02.646Z,5.14
2022-12-19T02:44:06.398Z,4.65
2022-12-19T02:45:13.684Z,5.35
2022-12-19T02:46:19.532Z,4.73
2022-12-19T02:47:22.639Z,4.88
2022-12-19T02:48:26.650Z,4.73
2022-12-19T02:49:31.415Z,4.25
2022-12-19T02:50:37.023Z,4.60
2022-12-19T02:51:40.240Z,4.41
2022-12-19T02:52:46.707Z,4.35
2022-12-19T02:53:50.087Z,4.49
2022-12-19T02:54:56.378Z,4.59
2022-12-19T02:56:15.460Z,4.11
2022-12-19T02:57:51.662Z,4.58
2022-12-19T03:00:17.917Z,4.69
2022-12-19T03:01:44.821Z,4.81
2022-12-19T03:02:57.898Z,4.56
2022-12-19T03:04:06.044Z,4.68
2022-12-19T03:05:28.403Z,4.54
2022-12-19T03:06:35.529Z,4.15
2022-12-19T03:07:43.466Z,4.46
2022-12-19T03:08:51.703Z,4.72
2022-12-19T03:10:04.442Z,4.67
2022-12-19T03:11:10.673Z,4.69
2022-12-19T03:12:20.163Z,4.43
2022-12-19T03:13:35.720Z,4.45
2022-12-19T03:14:39.008Z,4.46
2022-12-19T03:15:43.731Z,5.09
2022-12-19T03:16:47.255Z,4.64
2022-12-19T03:17:50.773Z,4.66
2022-12-19T03:18:54.768Z,4.10
2022-12-19T03:19:57.844Z,4.62
2022-12-19T03:21:10.796Z,4.71
2022-12-19T03:22:13.987Z,4.43
2022-12-19T03:23:17.758Z,4.09
2022-12-19T03:24:21.308Z,4.64
2022-12-19T03:25:25.673Z,4.33
2022-12-19T03:26:32.379Z,3.94
2022-12-19T03:27:39.036Z,4.18
2022-12-19T03:28:48.159Z,4.08
2022-12-19T03:29:57.749Z,4.38
2022-12-19T03:31:02.556Z,4.49
2022-12-19T03:32:09.382Z,4.46
2022-12-19T03:33:15.367Z,4.14
2022-12-19T03:34:43.317Z,4.47
2022-12-19T03:35:47.942Z,4.34
2022-12-19T03:36:54.833Z,4.08
2022-12-19T03:38:01.599Z,4.34
2022-12-19T03:39:08.374Z,4.68
2022-12-19T03:40:15.947Z,3.84
2022-12-19T03:41:23.434Z,4.11
2022-12-19T03:42:46.898Z,4.39
2022-12-19T03:43:50.211Z,4.35
2022-12-19T03:44:57.324Z,4.15
2022-12-19T03:46:13.680Z,4.37
2022-12-19T03:47:26.195Z,4.29
2022-12-19T03:48:45.032Z,3.98
2022-12-19T03:49:49.013Z,4.13
2022-12-19T03:51:16.996Z,4.12
2022-12-19T03:54:19.636Z,4.07
2022-12-19T03:55:26.355Z,3.88
2022-12-19T03:56:39.002Z,4.07
2022-12-19T03:57:57.842Z,4.03
2022-12-19T03:59:04.513Z,4.11
2022-12-19T04:00:17.110Z,3.86
2022-12-19T04:01:21.254Z,4.17
2022-12-19T04:02:25.435Z,3.64
2022-12-19T04:03:31.243Z,3.81
2022-12-19T04:04:37.875Z,3.66
2022-12-19T04:05:43.468Z,3.48
2022-12-19T04:06:48.736Z,3.86
2022-12-19T04:07:55.309Z,3.97
2022-12-19T04:08:59.719Z,3.72
2022-12-19T04:10:06.387Z,3.99
2022-12-19T04:11:13.499Z,3.34
2022-12-19T04:13:33.832Z,3.92
2022-12-19T04:14:38.399Z,4.15
2022-12-19T04:16:01.670Z,3.88
2022-12-19T04:17:32.741Z,4.13
2022-12-19T04:20:01.094Z,4.14
2022-12-19T04:21:10.717Z,3.83
2022-12-19T04:22:37.041Z,3.56
2022-12-19T04:23:49.836Z,3.27
2022-12-19T04:24:54.896Z,4.07
2022-12-19T04:26:01.686Z,3.99
2022-12-19T04:27:07.976Z,4.24
2022-12-19T04:28:20.753Z,3.84
2022-12-19T04:29:25.607Z,4.19
2022-12-19T04:30:29.244Z,3.65
2022-12-19T04:31:32.487Z,4.08
2022-12-19T04:32:37.386Z,3.71
2022-12-19T04:33:40.663Z,3.76
2022-12-19T04:34:43.937Z,4.20
2022-12-19T04:35:47.094Z,4.03
2022-12-19T04:36:51.259Z,3.67
2022-12-19T04:37:54.608Z,3.63
2022-12-19T04:38:57.874Z,3.71
2022-12-19T04:40:01.287Z,3.26
2022-12-19T04:41:04.982Z,3.66
2022-12-19T04:42:08.266Z,4.13
2022-12-19T04:43:11.487Z,3.39
2022-12-19T04:44:14.902Z,3.44
2022-12-19T04:45:18.131Z,3.11
2022-12-19T04:46:21.636Z,3.63
2022-12-19T04:47:24.763Z,3.51
2022-12-19T04:48:27.846Z,3.49
2022-12-19T04:49:31.058Z,2.83
2022-12-19T04:50:34.912Z,3.56
2022-12-19T04:51:38.636Z,3.68
2022-12-19T04:52:41.830Z,3.87
2022-12-19T04:53:45.071Z,2.59
2022-12-19T04:54:48.378Z,2.72
2022-12-19T04:55:54.251Z,2.75
2022-12-19T04:56:57.549Z,2.87
2022-12-19T04:58:04.609Z,2.52
2022-12-19T04:59:07.828Z,2.33
2022-12-19T05:00:12.327Z,2.55
2022-12-19T05:01:15.444Z,2.63
2022-12-19T05:02:18.645Z,2.99
2022-12-19T05:03:21.928Z,2.69
2022-12-19T05:04:25.165Z,2.58
2022-12-19T05:05:28.359Z,2.33
2022-12-19T05:06:31.537Z,1.96
2022-12-19T05:07:34.566Z,2.42
2022-12-19T05:08:38.606Z,2.33
2022-12-19T05:09:41.825Z,2.58
2022-12-19T05:10:44.979Z,2.59
2022-12-19T05:11:48.724Z,2.22
2022-12-19T05:12:53.690Z,2.11
2022-12-19T05:13:59.182Z,2.57
2022-12-19T05:15:02.386Z,2.33
2022-12-19T05:16:08.159Z,1.96
2022-12-19T05:17:11.191Z,2.22
2022-12-19T05:18:14.347Z,2.35
2022-12-19T05:19:17.995Z,3.37
2022-12-19T05:20:21.289Z,2.30
2022-12-19T05:21:24.814Z,1.97
2022-12-19T05:22:28.042Z,2.42
2022-12-19T05:23:31.734Z,2.31
2022-12-19T05:24:34.917Z,1.86
2022-12-19T05:25:38.101Z,2.12
2022-12-19T05:26:41.192Z,2.17
2022-12-19T05:27:44.261Z,2.08
2022-12-19T05:28:48.294Z,1.97
2022-12-19T05:29:51.350Z,2.28
2022-12-19T05:31:09.881Z,2.28
2022-12-19T05:32:13.047Z,2.29
2022-12-19T05:33:16.201Z,2.67
2022-12-19T05:34:19.132Z,2.71
2022-12-19T05:35:22.086Z,2.94
2022-12-19T05:36:32.178Z,2.21
2022-12-19T05:37:30.813Z,2.17
2022-12-19T05:38:34.709Z,2.01
2022-12-19T05:39:37.819Z,2.33
2022-12-19T05:40:42.805Z,2.48
2022-12-19T05:41:48.928Z,2.03
2022-12-19T05:42:50.871Z,2.24
2022-12-19T05:43:55.871Z,2.04
2022-12-19T05:44:59.061Z,2.36
2022-12-19T05:46:04.307Z,2.58
2022-12-19T05:47:07.953Z,2.62
2022-12-19T05:48:11.057Z,2.67
2022-12-19T05:49:15.604Z,2.12
2022-12-19T05:50:18.904Z,2.21
2022-12-19T05:51:23.965Z,2.39
2022-12-19T05:52:27.217Z,2.24
2022-12-19T05:53:30.460Z,3.24
2022-12-19T05:54:33.709Z,2.39
2022-12-19T05:55:36.891Z,2.48
2022-12-19T05:56:40.002Z,2.71
2022-12-19T05:57:43.328Z,2.66
2022-12-19T05:58:46.889Z,3.17
2022-12-19T05:59:50.108Z,3.99
2022-12-19T06:00:56.819Z,6.62
2022-12-19T06:01:58.432Z,4.66
2022-12-19T06:03:03.147Z,3.71
2022-12-19T06:04:07.439Z,4.17
2022-12-19T06:05:10.585Z,4.31
2022-12-19T06:06:16.634Z,3.46
2022-12-19T06:07:21.197Z,3.45
2022-12-19T06:08:24.678Z,3.64
2022-12-19T06:09:27.771Z,2.92
2022-12-19T06:10:31.209Z,2.81
2022-12-19T06:11:34.414Z,2.59
2022-12-19T06:12:37.621Z,3.08
2022-12-19T06:13:41.354Z,4.24
2022-12-19T06:14:44.552Z,4.45
2022-12-19T06:15:47.613Z,2.71
2022-12-19T06:16:50.773Z,2.87
2022-12-19T06:17:54.492Z,2.84
2022-12-19T06:18:57.703Z,2.47
2022-12-19T06:20:00.877Z,2.74
2022-12-19T06:21:06.605Z,3.23
2022-12-19T06:22:09.859Z,2.77
2022-12-19T06:23:13.059Z,2.99
2022-12-19T06:24:16.911Z,2.91
2022-12-19T06:25:20.236Z,2.63
2022-12-19T06:26:23.618Z,2.90
2022-12-19T06:27:26.812Z,2.86
2022-12-19T06:28:31.004Z,2.87
2022-12-19T06:29:34.199Z,2.59
2022-12-19T06:30:37.486Z,2.77
2022-12-19T06:31:40.697Z,3.06
2022-12-19T06:32:43.870Z,3.16
2022-12-19T06:33:47.249Z,2.62
2022-12-19T06:35:05.859Z,3.40
2022-12-19T06:36:04.033Z,3.42
2022-12-19T06:37:08.520Z,3.43
2022-12-19T06:38:11.754Z,4.17
2022-12-19T06:39:15.396Z,3.34
2022-12-19T06:40:20.273Z,3.09
2022-12-19T06:41:41.812Z,3.76
2022-12-19T06:42:47.415Z,3.09
2022-12-19T06:43:53.621Z,3.12
2022-12-19T06:44:56.409Z,2.96
2022-12-19T06:45:59.725Z,3.59
2022-12-19T06:47:02.855Z,4.32
2022-12-19T06:48:06.320Z,3.37
2022-12-19T06:49:10.670Z,3.25
2022-12-19T06:50:13.900Z,4.61
2022-12-19T06:51:17.013Z,2.98
2022-12-19T06:52:20.220Z,3.45
2022-12-19T06:53:23.303Z,3.56
2022-12-19T06:54:26.495Z,3.08
2022-12-19T06:55:29.595Z,3.31
2022-12-19T06:56:37.561Z,3.49
2022-12-19T06:57:42.535Z,3.02
2022-12-19T06:58:46.396Z,2.82
2022-12-19T06:59:49.588Z,2.72
2022-12-19T07:00:53.338Z,3.02
2022-12-19T07:02:16.747Z,2.72
2022-12-19T07:03:23.523Z,2.51
2022-12-19T07:04:51.367Z,3.31
2022-12-19T07:05:54.765Z,2.65
2022-12-19T07:06:58.740Z,3.04
2022-12-19T07:08:02.426Z,2.55
2022-12-19T07:09:05.886Z,3.22
2022-12-19T07:10:09.827Z,2.82
2022-12-19T07:11:12.907Z,2.86
2022-12-19T07:12:16.111Z,3.09
2022-12-19T07:13:19.344Z,2.79
2022-12-19T07:14:22.716Z,4.01
2022-12-19T07:15:26.491Z,2.32
2022-12-19T07:16:30.064Z,3.36
2022-12-19T07:17:33.883Z,2.89
2022-12-19T07:18:39.588Z,3.04
2022-12-19T07:19:42.828Z,2.81
2022-12-19T07:20:46.609Z,2.57
2022-12-19T07:21:50.034Z,2.75
2022-12-19T07:22:53.412Z,2.84
2022-12-19T07:23:56.621Z,2.97
2022-12-19T07:25:02.110Z,2.63
2022-12-19T07:26:05.738Z,3.46
2022-12-19T07:27:08.910Z,2.99
2022-12-19T07:28:12.669Z,3.29
2022-12-19T07:29:15.933Z,2.66
2022-12-19T07:30:19.795Z,2.69
2022-12-19T07:49:24.054Z,2.81
2022-12-19T07:50:27.488Z,3.03
2022-12-19T07:51:30.648Z,2.87
2022-12-19T07:52:34.152Z,2.62
2022-12-19T07:53:37.104Z,2.94
2022-12-19T07:54:40.446Z,2.87
2022-12-19T07:55:44.092Z,3.04
2022-12-19T07:56:47.333Z,3.19
2022-12-19T07:57:50.591Z,3.59
2022-12-19T07:58:53.645Z,2.71
2022-12-19T07:59:56.818Z,2.43
2022-12-19T08:01:00.957Z,2.54
2022-12-19T08:06:59.520Z,3.03
2022-12-19T08:08:02.827Z,2.79
2022-12-19T08:09:05.997Z,2.73
2022-12-19T08:10:11.889Z,2.72
2022-12-19T08:11:17.608Z,2.57
2022-12-19T08:12:20.852Z,2.92
2022-12-19T08:13:24.024Z,3.58
2022-12-19T08:14:27.788Z,3.09
2022-12-19T08:15:31.291Z,2.76
2022-12-19T08:16:55.552Z,2.60
2022-12-19T08:17:40.926Z,3.32
2022-12-19T08:18:44.467Z,3.70
2022-12-19T08:19:47.730Z,2.58
2022-12-19T08:20:50.908Z,2.84
2022-12-19T08:21:54.200Z,2.66
2022-12-19T08:22:57.410Z,2.70
2022-12-19T08:24:00.642Z,2.67
2022-12-19T08:25:04.200Z,2.57
2022-12-19T08:26:10.677Z,2.52
2022-12-19T08:27:15.654Z,4.43
2022-12-19T08:28:18.874Z,2.94
2022-12-19T08:29:22.059Z,3.67
2022-12-19T08:30:25.386Z,3.05
2022-12-19T08:31:28.960Z,2.34
2022-12-19T08:32:32.127Z,2.89
2022-12-19T08:33:36.205Z,2.56
2022-12-19T08:34:40.199Z,2.75
2022-12-19T08:35:43.447Z,3.02
2022-12-19T08:36:46.918Z,2.74
2022-12-19T08:37:50.116Z,2.49
2022-12-19T08:38:53.614Z,2.58
2022-12-19T08:39:56.841Z,2.46
2022-12-19T08:41:00.145Z,2.26
2022-12-19T08:42:03.311Z,2.46
2022-12-19T08:43:06.457Z,2.71
2022-12-19T08:44:11.947Z,2.49
2022-12-19T08:45:15.233Z,2.44
2022-12-19T08:46:20.142Z,2.84
2022-12-19T08:47:23.312Z,3.06
2022-12-19T08:48:26.891Z,3.11
2022-12-19T08:49:30.071Z,3.07
2022-12-19T08:50:33.694Z,2.77
2022-12-19T08:51:36.734Z,3.09
2022-12-19T08:52:39.844Z,2.37
2022-12-19T08:53:44.284Z,2.98
2022-12-19T08:54:47.696Z,19.01
2022-12-19T08:55:55.448Z,2.37
2022-12-19T08:56:58.829Z,2.98
2022-12-19T08:58:01.978Z,3.57
2022-12-19T08:59:05.931Z,2.46
2022-12-19T09:00:10.271Z,2.51
2022-12-19T09:01:18.525Z,2.73
2022-12-19T09:02:21.951Z,2.71
2022-12-19T09:03:25.679Z,2.58
2022-12-19T09:05:57.865Z,2.44
2022-12-19T09:05:59.417Z,2.55
2022-12-19T09:06:40.187Z,3.98
2022-12-19T09:07:43.403Z,2.37
2022-12-19T09:08:46.456Z,4.56
2022-12-19T09:09:49.654Z,3.14
2022-12-19T09:11:03.944Z,2.70
2022-12-19T09:12:07.109Z,3.03
2022-12-19T09:13:10.156Z,4.01
2022-12-19T09:14:13.366Z,2.92
2022-12-19T09:15:18.309Z,2.87
2022-12-19T09:16:23.136Z,4.71
2022-12-19T09:17:27.584Z,2.67
2022-12-19T09:18:34.453Z,3.12
2022-12-19T09:19:37.636Z,3.29
2022-12-19T09:20:41.673Z,2.74
2022-12-19T09:21:44.846Z,2.90
2022-12-19T09:22:47.896Z,2.66
2022-12-19T09:23:53.698Z,3.68
2022-12-19T09:24:56.934Z,3.26
2022-12-19T09:26:07.161Z,2.62
2022-12-19T09:27:10.607Z,3.69
2022-12-19T09:28:29.193Z,2.41
2022-12-19T09:29:20.424Z,2.29
2022-12-19T09:30:23.900Z,2.54
2022-12-19T09:31:27.968Z,2.42
2022-12-19T09:32:31.179Z,2.90
2022-12-19T09:33:41.190Z,2.20
2022-12-19T09:34:40.568Z,2.29
2022-12-19T09:35:55.571Z,2.18
2022-12-19T09:37:00.038Z,3.41
2022-12-19T09:38:03.251Z,3.40
2022-12-19T09:39:06.504Z,2.87
2022-12-19T09:40:15.089Z,2.73
2022-12-19T09:41:24.879Z,2.65
2022-12-19T09:42:48.324Z,2.26
2022-12-19T09:43:55.107Z,2.24
2022-12-19T09:45:32.097Z,2.14
2022-12-19T09:46:39.483Z,2.29
2022-12-19T09:47:45.984Z,2.59
2022-12-19T09:48:55.199Z,1.78
2022-12-19T09:49:59.357Z,1.96
2022-12-19T09:51:31.748Z,1.93
2022-12-19T09:52:39.203Z,2.48
2022-12-19T09:54:08.572Z,2.30
2022-12-19T09:55:18.393Z,2.52
2022-12-19T09:56:23.300Z,2.67
2022-12-19T09:57:38.694Z,2.29
2022-12-19T09:58:48.313Z,2.33
2022-12-19T09:59:57.483Z,3.69
2022-12-19T10:01:04.443Z,2.91
2022-12-19T10:02:29.590Z,2.73
2022-12-19T10:03:41.821Z,3.16
2022-12-19T10:04:51.766Z,2.74
2022-12-19T10:06:30.036Z,2.83
2022-12-19T10:07:40.181Z,2.81
2022-12-19T10:08:27.317Z,4.24
2022-12-19T10:12:00.249Z,2.57
2022-12-19T10:12:42.763Z,2.26
2022-12-19T10:12:51.952Z,2.32
2022-12-19T10:14:18.736Z,1.86
2022-12-19T10:15:42.214Z,2.02
2022-12-19T10:17:22.658Z,2.49
2022-12-19T10:18:04.910Z,2.07
2022-12-19T10:19:11.675Z,2.03
2022-12-19T10:20:21.358Z,1.82
2022-12-19T10:21:58.900Z,2.16
2022-12-19T10:22:39.614Z,1.96
2022-12-19T10:24:01.539Z,1.88
2022-12-19T10:25:29.397Z,2.44
2022-12-19T10:26:42.199Z,2.33
2022-12-19T10:27:58.605Z,2.48
2022-12-19T10:29:08.919Z,2.58
2022-12-19T10:30:22.360Z,5.20
2022-12-19T10:31:44.327Z,2.32
2022-12-19T10:33:19.991Z,2.33
2022-12-19T10:34:26.569Z,2.29
2022-12-19T10:35:36.847Z,2.29
2022-12-19T10:37:13.295Z,1.92
2022-12-19T10:37:52.233Z,1.97
2022-12-19T10:39:07.862Z,2.14
2022-12-19T10:40:25.629Z,3.50
2022-12-19T10:41:31.460Z,3.46
2022-12-19T10:42:50.844Z,2.71
2022-12-19T10:44:05.327Z,2.57
2022-12-19T10:45:15.240Z,2.15
2022-12-19T10:46:42.636Z,3.33
2022-12-19T10:47:57.313Z,2.84
2022-12-19T10:49:02.047Z,2.31
2022-12-19T10:50:09.505Z,2.31
2022-12-19T10:51:13.345Z,2.71
2022-12-19T10:52:20.095Z,2.29
2022-12-19T10:53:29.396Z,2.63
2022-12-19T10:54:42.112Z,3.17
2022-12-19T10:55:51.077Z,2.35
2022-12-19T10:56:55.286Z,2.63
2022-12-19T10:57:59.486Z,2.68
2022-12-19T10:59:03.182Z,3.03
2022-12-19T11:00:16.515Z,2.44
2022-12-19T11:01:26.604Z,2.68
2022-12-19T11:02:45.290Z,2.49
2022-12-19T11:04:08.861Z,2.48
2022-12-19T11:05:27.299Z,2.49
2022-12-19T11:06:53.726Z,2.54
2022-12-19T11:08:09.489Z,2.52
2022-12-19T11:09:21.991Z,3.87
2022-12-19T11:11:40.430Z,2.76
2022-12-19T11:15:45.426Z,2.43
2022-12-19T11:17:43.636Z,2.46
2022-12-19T11:19:46.012Z,3.97
2022-12-19T11:21:01.541Z,3.12
2022-12-19T11:24:01.181Z,5.72
2022-12-19T11:24:20.585Z,5.01
2022-12-19T11:27:32.142Z,3.43
2022-12-19T11:29:25.173Z,5.03
2022-12-19T11:29:30.009Z,3.56
2022-12-19T11:29:33.807Z,5.12
2022-12-19T11:29:36.867Z,3.68
2022-12-19T11:29:41.596Z,3.23
2022-12-19T11:30:37.606Z,2.72
2022-12-19T11:30:41.367Z,2.82
2022-12-19T11:30:48.854Z,4.16
2022-12-19T11:32:00.187Z,3.88
2022-12-19T11:32:35.856Z,3.87
2022-12-19T11:33:15.217Z,3.82
2022-12-19T11:34:20.759Z,2.89
2022-12-19T11:35:36.905Z,4.12
2022-12-19T11:36:34.374Z,3.94
2022-12-19T11:37:41.126Z,4.38
2022-12-19T11:38:53.763Z,3.02
2022-12-19T11:40:09.497Z,2.84
2022-12-19T11:41:16.408Z,2.83
2022-12-19T11:42:32.184Z,3.23
2022-12-19T11:43:44.315Z,2.97
2022-12-19T11:45:07.157Z,4.34
2022-12-19T11:46:26.103Z,2.97
2022-12-19T11:47:42.120Z,3.46
2022-12-19T11:48:51.892Z,7.30
2022-12-19T11:49:58.858Z,3.61
2022-12-19T11:51:39.582Z,3.48
2022-12-19T11:54:01.140Z,3.30
2022-12-19T11:55:24.372Z,2.92
2022-12-19T11:56:29.029Z,2.10
2022-12-19T11:57:32.302Z,7.46
2022-12-19T11:58:35.534Z,2.34
2022-12-19T11:59:40.316Z,3.31
2022-12-19T12:00:56.191Z,3.39
2022-12-19T12:02:11.931Z,3.54
2022-12-19T12:03:35.398Z,3.76
2022-12-19T12:04:56.786Z,3.32
2022-12-19T12:06:02.284Z,3.07
2022-12-19T12:07:12.764Z,4.00
2022-12-19T12:09:44.875Z,3.30
2022-12-19T12:12:59.195Z,7.74
2022-12-19T12:13:38.095Z,3.57
2022-12-19T12:20:31.338Z,4.06
2022-12-19T12:23:02.982Z,4.21
2022-12-19T12:27:48.179Z,4.98
2022-12-19T12:28:00.540Z,4.97
2022-12-19T12:31:02.601Z,5.33
2022-12-19T13:20:54.511Z,4.79
2022-12-19T13:22:10.265Z,7.31
2022-12-19T13:23:32.346Z,4.24
2022-12-19T13:26:24.106Z,5.08
2022-12-19T13:27:36.529Z,4.81
2022-12-19T13:28:41.416Z,5.26
2022-12-19T13:30:03.319Z,5.13
2022-12-19T13:31:18.480Z,6.73
2022-12-19T13:32:16.837Z,5.23
2022-12-19T13:33:20.040Z,7.19
2022-12-19T13:34:26.777Z,4.87
2022-12-19T13:39:24.118Z,4.91
2022-12-19T13:39:54.777Z,5.17
2022-12-19T13:39:55.537Z,4.87
2022-12-19T13:40:00.504Z,5.02
2022-12-19T13:40:56.518Z,5.28
2022-12-19T13:42:36.382Z,4.97
2022-12-19T13:43:48.716Z,5.37
2022-12-19T13:44:53.721Z,5.18
2022-12-19T13:46:05.207Z,5.66
2022-12-19T13:47:11.934Z,6.03
2022-12-19T13:48:33.486Z,5.64
2022-12-19T13:49:36.798Z,5.97
2022-12-19T13:50:41.507Z,6.91
2022-12-19T13:51:57.368Z,5.43
2022-12-19T13:53:01.562Z,5.12
2022-12-19T13:54:06.531Z,5.19
2022-12-19T13:55:14.410Z,4.69
2022-12-19T13:56:19.291Z,5.93
2022-12-19T13:57:31.162Z,5.10
2022-12-19T14:00:06.577Z,5.99
2022-12-19T14:01:25.562Z,6.26
2022-12-19T14:02:44.764Z,6.14
2022-12-19T14:03:43.280Z,6.51
2022-12-19T14:04:46.438Z,6.92
2022-12-19T14:06:16.720Z,6.60
2022-12-19T14:07:03.992Z,7.19
2022-12-19T14:08:07.932Z,6.53
2022-12-19T14:11:33.707Z,6.95
2022-12-19T14:11:39.874Z,6.84
2022-12-19T14:13:43.562Z,5.99
2022-12-19T14:13:46.670Z,6.36
2022-12-19T14:14:40.519Z,6.75
2022-12-19T14:15:51.991Z,7.57
2022-12-19T14:16:54.957Z,7.52
2022-12-19T14:18:08.321Z,6.99
2022-12-19T14:19:24.734Z,7.29
2022-12-19T14:22:02.716Z,6.65
2022-12-19T14:22:06.239Z,7.99
2022-12-19T14:22:40.311Z,7.11
2022-12-19T14:23:44.658Z,5.47
2022-12-19T14:26:05.958Z,9.18
2022-12-19T14:28:18.619Z,5.52
2022-12-19T14:28:25.685Z,5.51
2022-12-19T14:28:30.250Z,5.10
2022-12-19T14:30:26.204Z,5.08
2022-12-19T14:30:49.965Z,5.42
2022-12-19T14:31:58.615Z,4.39
2022-12-19T14:33:43.930Z,4.50
2022-12-19T14:35:03.927Z,4.09
2022-12-19T14:36:06.397Z,5.47
2022-12-19T14:36:36.501Z,4.51
2022-12-19T14:38:54.482Z,4.20
2022-12-19T14:39:24.523Z,3.82
2022-12-19T14:40:06.652Z,3.96
2022-12-19T14:43:58.764Z,4.28
2022-12-19T14:52:08.128Z,4.06
2022-12-19T14:53:33.929Z,4.29
2022-12-19T14:54:03.816Z,6.03
2022-12-19T14:54:04.858Z,4.01
2022-12-19T14:54:08.205Z,4.53
2022-12-19T14:54:13.315Z,3.74
2022-12-19T14:54:41.619Z,3.96
2022-12-19T14:54:55.284Z,3.86
2022-12-19T14:55:10.618Z,4.47
2022-12-19T14:56:07.857Z,5.06
2022-12-19T14:57:01.541Z,5.21
2022-12-19T14:58:50.914Z,5.28
2022-12-19T14:58:55.333Z,4.84
2022-12-19T14:59:47.161Z,4.97
2022-12-19T15:01:08.914Z,5.14
2022-12-19T15:02:09.640Z,6.13
2022-12-19T15:03:25.702Z,6.71
2022-12-19T15:04:50.876Z,6.50
2022-12-19T15:05:37.114Z,7.38
2022-12-19T15:07:08.449Z,6.42
2022-12-19T15:07:53.182Z,8.27
2022-12-19T15:10:58.653Z,5.96
2022-12-19T15:11:08.237Z,5.94
2022-12-19T15:11:54.011Z,6.32
2022-12-19T15:14:51.840Z,5.89
2022-12-19T15:14:56.479Z,5.63
2022-12-19T15:15:44.814Z,6.24
2022-12-19T15:16:47.812Z,6.98
2022-12-19T15:17:54.151Z,6.14
2022-12-19T15:18:59.957Z,4.67
2022-12-19T15:20:03.201Z,8.02
2022-12-19T15:21:09.278Z,6.07
2022-12-19T15:22:12.551Z,6.77
2022-12-19T15:23:21.671Z,6.51
2022-12-19T15:24:21.207Z,5.38
2022-12-19T15:26:01.518Z,5.96
2022-12-19T15:26:34.564Z,8.66
2022-12-19T15:27:37.731Z,6.09
2022-12-19T15:28:44.445Z,5.71
2022-12-19T15:29:47.681Z,5.64
2022-12-19T15:30:54.552Z,5.83
2022-12-19T15:31:57.852Z,5.60
2022-12-19T15:33:01.336Z,5.07
2022-12-19T15:35:18.880Z,6.92
2022-12-19T15:36:22.172Z,7.81
2022-12-19T15:37:25.496Z,5.89
2022-12-19T15:38:28.800Z,5.76
2022-12-19T15:39:31.913Z,5.60
2022-12-19T15:40:35.052Z,5.60
2022-12-19T15:41:38.278Z,5.74
2022-12-19T15:42:46.806Z,6.23
2022-12-19T15:44:07.511Z,6.49
2022-12-19T15:44:58.970Z,8.21
2022-12-19T15:46:02.264Z,7.92
2022-12-19T15:47:08.674Z,6.94
2022-12-19T15:48:16.350Z,7.97
2022-12-19T15:49:21.051Z,5.94
2022-12-19T15:50:27.800Z,5.73
2022-12-19T15:51:31.081Z,5.71
2022-12-19T15:52:34.199Z,5.31
2022-12-19T15:53:41.120Z,5.47
2022-12-19T15:54:50.683Z,5.98
2022-12-19T15:55:48.866Z,5.12
2022-12-19T15:56:54.979Z,6.11
2022-12-19T15:58:01.444Z,5.53
2022-12-19T15:59:05.753Z,4.95
2022-12-19T16:00:22.596Z,5.51
2022-12-19T16:01:27.219Z,6.36
2022-12-19T16:03:12.756Z,6.25
2022-12-19T16:03:38.506Z,6.78
2022-12-19T16:04:42.058Z,6.56
2022-12-19T16:05:45.507Z,6.20
2022-12-19T16:06:48.792Z,6.56
2022-12-19T16:07:52.040Z,6.81
2022-12-19T16:08:55.404Z,6.99
2022-12-19T16:09:58.610Z,7.56
2022-12-19T16:11:02.565Z,9.11
2022-12-19T16:12:05.866Z,9.99
2022-12-19T16:13:21.672Z,10.57
2022-12-19T16:14:25.988Z,14.17
2022-12-19T16:15:31.709Z,12.66
2022-12-19T16:16:35.072Z,14.66
2022-12-19T16:17:38.277Z,14.28
2022-12-19T16:18:42.047Z,15.08
2022-12-19T16:19:45.213Z,13.93
2022-12-19T16:20:48.607Z,14.18
2022-12-19T16:21:52.509Z,13.82
2022-12-19T16:22:55.664Z,14.51
2022-12-19T16:23:58.766Z,12.11
2022-12-19T16:25:02.024Z,12.89
2022-12-19T16:26:08.019Z,13.96
2022-12-19T16:27:14.747Z,9.59
2022-12-19T16:28:27.506Z,9.58
2022-12-19T16:29:33.764Z,8.72
2022-12-19T16:30:36.963Z,8.28
2022-12-19T16:31:41.671Z,8.10
2022-12-19T16:32:44.900Z,7.64
2022-12-19T16:33:48.144Z,6.69
2022-12-19T16:34:52.631Z,7.01
2022-12-19T16:36:05.787Z,7.50
2022-12-19T16:37:01.833Z,7.08
2022-12-19T16:38:05.001Z,6.30
2022-12-19T16:39:08.288Z,7.22
2022-12-19T16:40:25.061Z,7.12
2022-12-19T16:41:28.938Z,7.04
2022-12-19T16:42:33.269Z,7.44
2022-12-19T16:43:39.847Z,8.52